Main page
METAR-TAF:

METAR-TAF

Airports :

San Fernando Airport

San Fernando, Argentina

latitude: 34-27-11S, longitude: 058-35-23W, elevation: 3 m

Current weather observation

The report was made 32 minutes ago, at 20:00 UTC
Wind 10 kt from the East/Northeast
Temperature 21°C
Humidity 40%
Pressure 1016 hPa
Visibility 10 km or more
no clouds below 1500 m and no cumulonimbus

METAR: SADF 242000Z 07010KT CAVOK 21/07 Q1016 RMK PP000

Time: 17:32 (20:32 UTC)

Forecast

The report was made 27 hours and 32 minutes ago, at 17:00 UTC
Forecast valid from 24 at 18 UTC to 25 at 18 UTC
Wind 10 kt from the East
Visibility 10 km or more
no clouds below 1500 m and no cumulonimbus
Becoming
from 25 at 03 UTC to 25 at 05 UTC
Wind 5 kt from the Northeast
Becoming
from 25 at 13 UTC to 25 at 15 UTC
Wind 10 kt from the North/Northeast

TAF: SADF 271700Z 2418/2518 09010KT CAVOK TX23/2419Z TN11/2509Z BECMG 2503/2505 05005KT BECMG 2513/2515 02010KT

Weather observations and forecasts of more than 4000 airports (METAR and TAF reports).

The available stations are represented by yellow and red dots on the map.

Hover mouse over dot to see the name of the station.

Then click to see weather observations and forecasts.

To change the map : click on the green buttons with a black cross to zoom in, on the green button with a dash to zoom out, or on the green arrows for adjacent maps.


METAR-TAF: